createdAt,value
2018-07-22T00:01:52.598Z,22.50
2018-07-22T00:04:19.924Z,22.50
2018-07-22T00:06:47.279Z,22.40
2018-07-22T00:09:14.630Z,22.40
2018-07-22T00:11:41.985Z,22.30
2018-07-22T00:14:09.387Z,22.20
2018-07-22T00:16:37.014Z,22.10
2018-07-22T00:19:04.464Z,22.10
2018-07-22T00:21:32.251Z,22.10
2018-07-22T00:23:59.583Z,22.10
2018-07-22T00:26:26.932Z,22.00
2018-07-22T00:28:54.271Z,21.90
2018-07-22T00:31:21.595Z,22.00
2018-07-22T00:33:48.981Z,22.00
2018-07-22T00:36:16.337Z,22.00
2018-07-22T00:38:43.676Z,21.90
2018-07-22T00:41:11.014Z,21.90
2018-07-22T00:43:38.344Z,21.80
2018-07-22T00:46:05.683Z,21.80
2018-07-22T00:48:33.023Z,21.80
2018-07-22T00:51:00.435Z,21.80
2018-07-22T00:53:27.775Z,21.80
2018-07-22T00:55:55.173Z,21.80
2018-07-22T00:58:22.519Z,21.70
2018-07-22T01:00:49.873Z,21.70
2018-07-22T01:03:17.200Z,21.80
2018-07-22T01:05:44.529Z,21.70
2018-07-22T01:08:11.872Z,21.60
2018-07-22T01:10:39.248Z,21.50
2018-07-22T01:13:06.819Z,21.50
2018-07-22T01:15:34.187Z,21.40
2018-07-22T01:18:01.592Z,21.30
2018-07-22T01:20:28.935Z,21.20
2018-07-22T01:22:56.290Z,21.10
2018-07-22T01:25:23.665Z,21.10
2018-07-22T01:27:51.028Z,21.10
2018-07-22T01:30:18.389Z,21.00
2018-07-22T01:32:45.727Z,21.00
2018-07-22T01:35:13.077Z,21.10
2018-07-22T01:37:40.518Z,21.10
2018-07-22T01:40:07.842Z,21.10
2018-07-22T01:42:35.175Z,21.10
2018-07-22T01:45:02.597Z,21.10
2018-07-22T01:47:29.943Z,21.10
2018-07-22T01:49:57.339Z,21.20
2018-07-22T01:52:24.679Z,21.20
2018-07-22T01:54:52.019Z,21.30
2018-07-22T01:57:19.371Z,21.30
2018-07-22T01:59:46.725Z,21.30
2018-07-22T02:02:14.102Z,21.30
2018-07-22T02:04:41.441Z,21.30
2018-07-22T02:07:09.129Z,21.30
2018-07-22T02:09:36.591Z,21.30
2018-07-22T02:12:04.047Z,21.30
2018-07-22T02:14:31.398Z,21.30
2018-07-22T02:16:58.713Z,21.40
2018-07-22T02:19:26.061Z,21.40
2018-07-22T02:21:53.388Z,21.40
2018-07-22T02:24:20.695Z,21.50
2018-07-22T02:26:48.291Z,21.50
2018-07-22T02:29:15.645Z,21.50
2018-07-22T02:31:42.990Z,21.40
2018-07-22T02:34:10.446Z,21.50
2018-07-22T02:36:37.839Z,21.50
2018-07-22T02:39:06.700Z,21.40
2018-07-22T02:41:34.185Z,21.40
2018-07-22T02:44:01.513Z,21.40
2018-07-22T02:48:55.993Z,21.40
2018-07-22T02:51:23.365Z,21.30
2018-07-22T02:53:50.668Z,21.30
2018-07-22T02:56:18.079Z,21.40
2018-07-22T02:58:45.416Z,21.40
2018-07-22T03:01:12.765Z,21.40
2018-07-22T03:03:40.713Z,21.40
2018-07-22T03:06:08.076Z,21.50
2018-07-22T03:08:35.412Z,21.50
2018-07-22T03:11:02.791Z,21.40
2018-07-22T03:13:30.152Z,21.40
2018-07-22T03:15:57.479Z,21.50
2018-07-22T03:18:24.804Z,21.50
2018-07-22T03:20:52.120Z,21.30
2018-07-22T03:25:46.641Z,21.40
2018-07-22T03:30:41.378Z,21.20
2018-07-22T03:35:36.083Z,21.20
2018-07-22T03:38:03.437Z,21.10
2018-07-22T03:40:30.879Z,21.10
2018-07-22T03:42:58.208Z,21.10
2018-07-22T03:45:25.563Z,21.00
2018-07-22T03:47:52.891Z,21.10
2018-07-22T03:50:20.226Z,21.10
2018-07-22T03:52:47.545Z,21.10
2018-07-22T03:55:14.867Z,21.10
2018-07-22T03:57:42.424Z,21.00
2018-07-22T04:00:09.775Z,21.00
2018-07-22T04:02:37.303Z,20.90
2018-07-22T04:05:05.004Z,20.80
2018-07-22T04:07:32.392Z,20.90
2018-07-22T04:09:59.727Z,20.90
2018-07-22T04:12:27.053Z,20.90
2018-07-22T04:14:54.363Z,21.00
2018-07-22T04:17:21.708Z,21.00
2018-07-22T04:19:49.047Z,21.00
2018-07-22T04:22:16.374Z,20.90
2018-07-22T04:24:43.696Z,21.00
2018-07-22T04:27:11.045Z,20.90
2018-07-22T04:29:38.379Z,20.90
2018-07-22T04:32:05.734Z,21.00
2018-07-22T04:34:33.063Z,21.10
2018-07-22T04:37:00.448Z,21.10
2018-07-22T04:39:27.803Z,21.10
2018-07-22T04:41:55.131Z,21.00
2018-07-22T04:44:22.498Z,21.00
2018-07-22T04:46:49.841Z,21.10
2018-07-22T04:49:17.178Z,21.10
2018-07-22T04:51:44.580Z,21.20
2018-07-22T04:54:12.732Z,21.20
2018-07-22T04:56:40.060Z,21.20
2018-07-22T04:59:07.437Z,21.20
2018-07-22T05:01:34.800Z,21.20
2018-07-22T05:04:02.148Z,21.30
2018-07-22T05:06:29.499Z,21.30
2018-07-22T05:08:56.849Z,21.20
2018-07-22T05:11:24.215Z,21.20
2018-07-22T05:13:51.660Z,21.10
2018-07-22T05:16:19.027Z,21.10
2018-07-22T05:18:46.363Z,21.10
2018-07-22T05:21:13.730Z,21.10
2018-07-22T05:23:41.049Z,21.20
2018-07-22T05:26:08.387Z,21.30
2018-07-22T05:28:35.696Z,21.30
2018-07-22T05:31:03.077Z,21.40
2018-07-22T05:33:30.405Z,21.50
2018-07-22T05:35:57.764Z,21.60
2018-07-22T05:38:25.115Z,21.70
2018-07-22T05:40:52.463Z,21.80
2018-07-22T05:43:19.831Z,21.90
2018-07-22T05:45:47.179Z,22.00
2018-07-22T05:48:14.528Z,22.10
2018-07-22T05:50:41.867Z,22.20
2018-07-22T05:53:09.188Z,22.30
2018-07-22T05:55:36.592Z,22.40
2018-07-22T05:58:04.347Z,22.40
2018-07-22T06:00:31.845Z,22.50
2018-07-22T06:02:59.169Z,22.60
2018-07-22T06:05:26.489Z,22.70
2018-07-22T06:07:53.832Z,22.80
2018-07-22T06:10:21.163Z,22.80
2018-07-22T06:12:48.630Z,22.90
2018-07-22T06:15:16.030Z,23.00
2018-07-22T06:17:44.205Z,23.10
2018-07-22T06:20:11.559Z,23.20
2018-07-22T06:22:38.885Z,23.30
2018-07-22T06:25:07.119Z,23.40
2018-07-22T06:27:34.595Z,23.50
2018-07-22T06:30:02.191Z,23.50
2018-07-22T06:32:29.576Z,23.60
2018-07-22T06:34:56.894Z,23.70
2018-07-22T06:37:24.279Z,23.80
2018-07-22T06:39:51.600Z,23.80
2018-07-22T06:42:18.983Z,23.90
2018-07-22T06:44:46.320Z,23.90
2018-07-22T06:47:13.713Z,24.00
2018-07-22T06:49:41.070Z,24.10
2018-07-22T06:52:08.427Z,24.10
2018-07-22T06:54:35.773Z,24.20
2018-07-22T06:57:03.095Z,24.10
2018-07-22T06:59:30.468Z,24.10
2018-07-22T07:01:57.772Z,24.20
2018-07-22T07:04:25.092Z,24.30
2018-07-22T07:06:52.443Z,24.30
2018-07-22T07:09:19.784Z,24.30
2018-07-22T07:11:47.135Z,24.30
2018-07-22T07:14:14.515Z,24.30
2018-07-22T07:19:09.200Z,24.50
2018-07-22T07:21:36.519Z,24.70
2018-07-22T07:24:03.857Z,24.80
2018-07-22T07:26:31.208Z,24.90
2018-07-22T07:28:58.568Z,24.90
2018-07-22T07:31:25.915Z,25.00
2018-07-22T07:33:53.243Z,25.00
2018-07-22T07:36:20.590Z,25.00
2018-07-22T07:38:47.941Z,25.00
2018-07-22T07:41:15.884Z,25.00
2018-07-22T07:43:43.398Z,25.00
2018-07-22T07:46:10.726Z,25.00
2018-07-22T07:48:38.240Z,25.00
2018-07-22T07:51:05.679Z,25.00
2018-07-22T07:53:33.047Z,25.00
2018-07-22T07:56:00.412Z,25.10
2018-07-22T07:58:27.775Z,25.10
2018-07-22T08:00:55.127Z,25.20
2018-07-22T08:03:22.535Z,25.30
2018-07-22T08:05:49.915Z,25.40
2018-07-22T08:08:17.295Z,25.40
2018-07-22T08:13:11.969Z,25.50
2018-07-22T08:15:39.531Z,25.60
2018-07-22T08:18:06.900Z,25.60
2018-07-22T08:20:34.290Z,25.70
2018-07-22T08:23:01.734Z,25.80
2018-07-22T08:27:56.270Z,25.90
2018-07-22T08:30:23.647Z,26.00
2018-07-22T08:32:51.029Z,26.10
2018-07-22T08:35:18.436Z,26.20
2018-07-22T08:37:45.825Z,26.30
2018-07-22T08:40:13.179Z,26.40
2018-07-22T08:42:40.547Z,26.40
2018-07-22T08:45:08.195Z,26.50
2018-07-22T08:47:35.601Z,26.50
2018-07-22T08:50:02.896Z,26.50
2018-07-22T08:52:30.366Z,26.40
2018-07-22T08:54:57.740Z,26.20
2018-07-22T08:57:25.096Z,26.10
2018-07-22T08:59:52.444Z,26.20
2018-07-22T09:02:19.789Z,26.30
2018-07-22T09:04:47.459Z,26.30
2018-07-22T09:07:14.783Z,26.40
2018-07-22T09:09:42.156Z,26.40
2018-07-22T09:12:09.507Z,26.40
2018-07-22T09:14:36.856Z,26.40
2018-07-22T09:17:04.200Z,26.40
2018-07-22T09:19:31.561Z,26.30
2018-07-22T09:21:58.920Z,26.30
2018-07-22T09:24:26.288Z,26.30
2018-07-22T09:26:53.627Z,26.30
2018-07-22T09:29:20.999Z,26.30
2018-07-22T09:31:48.347Z,26.30
2018-07-22T09:34:15.709Z,26.30
2018-07-22T09:36:43.060Z,26.30
2018-07-22T09:39:11.438Z,26.40
2018-07-22T09:41:38.795Z,26.50
2018-07-22T09:44:06.335Z,26.50
2018-07-22T09:46:33.691Z,26.40
2018-07-22T09:49:01.067Z,26.40
2018-07-22T09:51:28.392Z,26.30
2018-07-22T09:53:55.753Z,26.20
2018-07-22T09:56:23.096Z,26.20
2018-07-22T09:58:50.502Z,26.30
2018-07-22T10:01:18.934Z,26.40
2018-07-22T10:03:46.355Z,26.50
2018-07-22T10:06:13.867Z,26.50
2018-07-22T10:08:41.322Z,26.60
2018-07-22T10:11:08.834Z,26.60
2018-07-22T10:13:36.276Z,26.70
2018-07-22T10:16:03.778Z,26.70
2018-07-22T10:18:31.163Z,26.60
2018-07-22T10:20:58.607Z,26.70
2018-07-22T10:23:26.016Z,26.80
2018-07-22T10:25:53.318Z,26.90
2018-07-22T10:28:20.687Z,26.90
2018-07-22T10:30:48.032Z,26.90
2018-07-22T10:33:15.404Z,26.90
2018-07-22T10:35:42.790Z,26.70
2018-07-22T10:38:10.142Z,26.70
2018-07-22T10:40:37.514Z,26.70
2018-07-22T10:43:04.991Z,26.80
2018-07-22T10:45:32.372Z,26.90
2018-07-22T10:47:59.719Z,26.90
2018-07-22T10:50:27.066Z,27.00
2018-07-22T10:52:54.410Z,27.10
2018-07-22T10:55:21.720Z,27.10
2018-07-22T10:57:49.651Z,27.20
2018-07-22T11:00:17.035Z,27.30
2018-07-22T11:02:44.388Z,27.40
2018-07-22T11:05:11.741Z,27.60
2018-07-22T11:07:39.087Z,27.60
2018-07-22T11:10:06.663Z,27.70
2018-07-22T11:12:34.084Z,27.80
2018-07-22T11:15:01.477Z,27.90
2018-07-22T11:17:29.290Z,28.10
2018-07-22T11:19:56.683Z,28.30
2018-07-22T11:22:24.051Z,28.40
2018-07-22T11:24:51.523Z,28.30
2018-07-22T11:27:18.861Z,28.30
2018-07-22T11:29:46.278Z,28.30
2018-07-22T11:32:13.630Z,28.50
2018-07-22T11:34:41.015Z,28.70
2018-07-22T11:37:08.501Z,28.70
2018-07-22T11:39:35.845Z,28.70
2018-07-22T11:42:03.220Z,28.70
2018-07-22T11:44:30.707Z,28.70
2018-07-22T11:46:58.087Z,28.70
2018-07-22T11:49:25.474Z,28.80
2018-07-22T11:51:52.805Z,29.00
2018-07-22T11:54:20.804Z,29.10
2018-07-22T11:56:48.200Z,29.10
2018-07-22T11:59:15.575Z,29.10
2018-07-22T12:01:43.044Z,29.30
2018-07-22T12:04:10.385Z,29.40
2018-07-22T12:06:37.765Z,29.60
2018-07-22T12:09:06.598Z,29.70
2018-07-22T12:11:34.716Z,29.80
2018-07-22T12:14:02.057Z,29.90
2018-07-22T12:16:29.518Z,29.90
2018-07-22T12:18:56.865Z,29.90
2018-07-22T12:21:24.229Z,30.00
2018-07-22T12:23:51.593Z,30.30
2018-07-22T12:26:18.952Z,30.60
2018-07-22T12:28:46.315Z,31.00
2018-07-22T12:31:13.763Z,31.20
2018-07-22T12:33:41.115Z,31.30
2018-07-22T12:36:08.775Z,31.60
2018-07-22T12:38:36.165Z,32.00
2018-07-22T12:41:03.467Z,32.30
2018-07-22T12:43:30.844Z,32.50
2018-07-22T12:45:58.195Z,32.70
2018-07-22T12:48:25.624Z,33.20
2018-07-22T12:50:52.992Z,33.60
2018-07-22T12:53:20.344Z,33.90
2018-07-22T12:55:47.804Z,34.10
2018-07-22T12:58:15.159Z,34.10
2018-07-22T13:00:42.519Z,34.20
2018-07-22T13:03:09.885Z,34.70
2018-07-22T13:05:37.620Z,35.20
2018-07-22T13:08:05.130Z,35.60
2018-07-22T13:10:32.584Z,35.40
2018-07-22T13:13:00.016Z,35.40
2018-07-22T13:15:27.327Z,35.60
2018-07-22T13:17:54.747Z,35.40
2018-07-22T13:20:22.450Z,35.40
2018-07-22T13:22:49.774Z,36.00
2018-07-22T13:25:17.107Z,36.90
2018-07-22T13:27:44.553Z,37.70
2018-07-22T13:32:39.052Z,36.90
2018-07-22T13:35:06.446Z,35.50
2018-07-22T13:37:33.792Z,34.50
2018-07-22T13:40:01.129Z,34.20
2018-07-22T13:42:28.656Z,34.60
2018-07-22T13:44:56.010Z,35.10
2018-07-22T13:47:23.337Z,35.20
2018-07-22T13:49:50.656Z,35.30
2018-07-22T13:52:18.123Z,35.80
2018-07-22T13:54:45.543Z,36.00
2018-07-22T13:57:12.951Z,35.40
2018-07-22T13:59:40.269Z,34.80
2018-07-22T14:02:08.166Z,35.20
2018-07-22T14:04:35.503Z,34.70
2018-07-22T14:07:02.844Z,34.20
2018-07-22T14:09:30.219Z,34.70
2018-07-22T14:11:57.595Z,35.70
2018-07-22T14:14:24.956Z,36.50
2018-07-22T14:16:52.992Z,37.20
2018-07-22T14:19:20.432Z,37.10
2018-07-22T14:21:47.823Z,36.10
2018-07-22T14:24:15.194Z,35.80
2018-07-22T14:26:42.529Z,36.50
2018-07-22T14:31:43.892Z,37.30
2018-07-22T14:34:11.459Z,37.60
2018-07-22T14:36:38.822Z,37.30
2018-07-22T14:39:07.171Z,37.10
2018-07-22T14:41:34.724Z,37.20
2018-07-22T14:44:02.089Z,37.70
2018-07-22T14:46:29.454Z,37.30
2018-07-22T14:48:56.805Z,36.60
2018-07-22T14:51:24.244Z,36.90
2018-07-22T14:53:51.576Z,37.50
2018-07-22T14:56:18.948Z,37.80
2018-07-22T14:58:46.339Z,37.20
2018-07-22T15:01:13.704Z,36.90
2018-07-22T15:03:41.440Z,36.80
2018-07-22T15:06:09.001Z,36.70
2018-07-22T15:08:36.443Z,36.80
2018-07-22T15:11:04.139Z,36.80
2018-07-22T15:13:31.499Z,36.30
2018-07-22T15:15:58.820Z,36.20
2018-07-22T15:18:26.181Z,36.00
2018-07-22T15:20:53.504Z,35.40
2018-07-22T15:23:22.306Z,35.20
2018-07-22T15:25:49.745Z,35.40
2018-07-22T15:28:18.561Z,34.80
2018-07-22T15:30:46.237Z,33.90
2018-07-22T15:33:13.605Z,33.10
2018-07-22T15:35:41.294Z,33.50
2018-07-22T15:38:08.729Z,34.00
2018-07-22T15:40:36.081Z,33.70
2018-07-22T15:43:03.430Z,33.80
2018-07-22T15:45:30.759Z,33.50
2018-07-22T15:47:58.092Z,32.80
2018-07-22T15:50:25.457Z,32.30
2018-07-22T15:52:52.855Z,31.70
2018-07-22T15:55:20.349Z,31.40
2018-07-22T15:57:47.689Z,31.30
2018-07-22T16:00:15.187Z,31.60
2018-07-22T16:02:42.787Z,31.90
2018-07-22T16:05:10.152Z,31.70
2018-07-22T16:07:37.803Z,31.70
2018-07-22T16:10:05.202Z,32.10
2018-07-22T16:12:32.554Z,32.20
2018-07-22T16:14:59.896Z,32.40
2018-07-22T16:17:27.219Z,32.40
2018-07-22T16:19:54.592Z,32.40
2018-07-22T16:22:22.009Z,32.30
2018-07-22T16:24:49.387Z,32.10
2018-07-22T16:27:16.798Z,31.60
2018-07-22T16:29:44.199Z,31.10
2018-07-22T16:32:11.624Z,30.80
2018-07-22T16:34:39.179Z,30.50
2018-07-22T16:37:06.537Z,30.00
2018-07-22T16:39:33.928Z,29.80
2018-07-22T16:42:01.256Z,29.70
2018-07-22T16:44:28.634Z,29.70
2018-07-22T16:46:56.371Z,29.80
2018-07-22T16:49:23.722Z,29.90
2018-07-22T16:51:51.060Z,29.90
2018-07-22T16:54:18.375Z,30.00
2018-07-22T16:56:45.852Z,29.90
2018-07-22T16:59:13.176Z,30.00
2018-07-22T17:04:07.863Z,30.30
2018-07-22T17:06:35.170Z,30.60
2018-07-22T17:09:02.551Z,30.80
2018-07-22T17:11:29.871Z,31.00
2018-07-22T17:13:57.199Z,31.20
2018-07-22T17:16:24.510Z,31.40
2018-07-22T17:18:51.919Z,31.30
2018-07-22T17:21:19.248Z,30.80
2018-07-22T17:23:46.678Z,30.70
2018-07-22T17:26:14.001Z,30.50
2018-07-22T17:28:41.339Z,30.40
2018-07-22T17:31:08.698Z,30.40
2018-07-22T17:33:36.027Z,30.10
2018-07-22T17:36:03.363Z,29.90
2018-07-22T17:38:30.823Z,29.80
2018-07-22T17:40:58.175Z,29.80
2018-07-22T17:43:25.539Z,29.50
2018-07-22T17:45:52.882Z,29.40
2018-07-22T17:48:20.382Z,29.10
2018-07-22T17:50:47.703Z,29.00
2018-07-22T17:53:15.057Z,29.00
2018-07-22T17:55:42.411Z,28.90
2018-07-22T17:58:09.800Z,28.80
2018-07-22T18:00:37.151Z,28.70
2018-07-22T18:03:10.141Z,28.80
2018-07-22T18:05:37.518Z,28.80
2018-07-22T18:08:04.919Z,28.80
2018-07-22T18:10:32.272Z,28.70
2018-07-22T18:13:02.432Z,28.50
2018-07-22T18:15:29.779Z,28.00
2018-07-22T18:17:57.864Z,27.80
2018-07-22T18:20:25.154Z,27.60
2018-07-22T18:22:52.498Z,27.60
2018-07-22T18:25:19.995Z,27.60
2018-07-22T18:27:47.289Z,27.40
2018-07-22T18:30:14.629Z,27.20
2018-07-22T18:32:42.085Z,27.00
2018-07-22T18:35:09.469Z,26.90
2018-07-22T18:37:36.898Z,26.80
2018-07-22T18:40:04.192Z,26.70
2018-07-22T18:42:31.580Z,26.70
2018-07-22T18:44:58.919Z,26.70
2018-07-22T18:47:26.281Z,26.70
2018-07-22T18:49:53.628Z,26.60
2018-07-22T18:52:20.956Z,26.40
2018-07-22T18:54:48.353Z,26.30
2018-07-22T18:57:15.698Z,26.30
2018-07-22T18:59:43.103Z,26.30
2018-07-22T19:02:10.545Z,26.20
2018-07-22T19:04:37.982Z,26.10
2018-07-22T19:07:05.358Z,26.00
2018-07-22T19:09:32.737Z,25.90
2018-07-22T19:12:00.072Z,25.90
2018-07-22T19:14:27.425Z,25.90
2018-07-22T19:16:54.829Z,25.90
2018-07-22T19:19:22.249Z,25.80
2018-07-22T19:21:49.577Z,25.80
2018-07-22T19:24:16.903Z,25.70
2018-07-22T19:26:44.275Z,25.70
2018-07-22T19:29:11.620Z,25.60
2018-07-22T19:31:38.967Z,25.50
2018-07-22T19:34:06.287Z,25.50
2018-07-22T19:36:33.635Z,25.40
2018-07-22T19:39:00.989Z,25.30
2018-07-22T19:41:28.356Z,25.30
2018-07-22T19:43:55.746Z,25.30
2018-07-22T19:46:23.145Z,25.30
2018-07-22T19:48:50.598Z,25.30
2018-07-22T19:51:17.962Z,25.30
2018-07-22T19:53:45.406Z,25.20
2018-07-22T19:56:12.822Z,25.10
2018-07-22T19:58:40.154Z,25.10
2018-07-22T20:01:07.499Z,25.00
2018-07-22T20:03:34.836Z,25.00
2018-07-22T20:06:02.239Z,25.00
2018-07-22T20:08:30.329Z,24.90
2018-07-22T20:10:57.777Z,24.90
2018-07-22T20:13:25.118Z,24.80
2018-07-22T20:15:52.803Z,24.70
2018-07-22T20:18:20.140Z,24.70
2018-07-22T20:20:47.426Z,24.70
2018-07-22T20:23:14.795Z,24.80
2018-07-22T20:25:42.158Z,24.70
2018-07-22T20:28:09.682Z,24.50
2018-07-22T20:30:37.018Z,24.40
2018-07-22T20:33:04.327Z,24.40
2018-07-22T20:35:31.646Z,24.30
2018-07-22T20:37:59.034Z,24.20
2018-07-22T20:40:26.403Z,24.10
2018-07-22T20:42:53.753Z,24.10
2018-07-22T20:45:21.116Z,24.10
2018-07-22T20:47:48.463Z,24.10
2018-07-22T20:50:16.215Z,24.10
2018-07-22T20:52:43.573Z,24.00
2018-07-22T20:55:10.922Z,24.00
2018-07-22T20:57:38.266Z,23.90
2018-07-22T21:00:05.633Z,23.90
2018-07-22T21:02:32.984Z,23.80
2018-07-22T21:05:00.398Z,23.70
2018-07-22T21:07:27.703Z,23.70
2018-07-22T21:09:55.140Z,23.70
2018-07-22T21:12:37.656Z,23.70
2018-07-22T21:15:05.394Z,23.70
2018-07-22T21:17:32.886Z,23.70
2018-07-22T21:20:00.244Z,23.60
2018-07-22T21:22:27.573Z,23.60
2018-07-22T21:24:54.983Z,23.60
2018-07-22T21:27:22.366Z,23.50
2018-07-22T21:29:49.679Z,23.50
2018-07-22T21:32:17.092Z,23.40
2018-07-22T21:34:44.466Z,23.40
2018-07-22T21:37:11.832Z,23.30
2018-07-22T21:39:39.161Z,23.30
2018-07-22T21:42:07.624Z,23.30
2018-07-22T21:44:34.974Z,23.30
2018-07-22T21:47:02.299Z,23.30
2018-07-22T21:49:29.709Z,23.20
2018-07-22T21:51:57.036Z,23.20
2018-07-22T21:54:24.406Z,23.10
2018-07-22T21:56:51.752Z,23.10
2018-07-22T21:59:19.147Z,23.10
2018-07-22T22:01:46.480Z,23.20
2018-07-22T22:04:13.881Z,23.20
2018-07-22T22:06:41.241Z,23.30
2018-07-22T22:09:08.574Z,23.20
2018-07-22T22:11:35.907Z,23.20
2018-07-22T22:14:03.280Z,23.10
2018-07-22T22:16:30.636Z,23.10
2018-07-22T22:18:57.992Z,23.00
2018-07-22T22:21:25.340Z,22.90
2018-07-22T22:23:52.704Z,22.90
2018-07-22T22:26:20.009Z,22.90
2018-07-22T22:28:47.362Z,22.80
2018-07-22T22:31:14.842Z,22.80
2018-07-22T22:33:42.228Z,22.80
2018-07-22T22:36:09.578Z,22.80
2018-07-22T22:38:36.907Z,22.90
2018-07-22T22:41:04.326Z,22.90
2018-07-22T22:43:31.640Z,22.90
2018-07-22T22:45:58.968Z,22.90
2018-07-22T22:48:26.305Z,22.90
2018-07-22T22:50:53.636Z,22.90
2018-07-22T22:53:21.015Z,22.80
2018-07-22T22:55:48.375Z,22.80
2018-07-22T22:58:21.479Z,22.90
2018-07-22T23:00:48.839Z,22.80
2018-07-22T23:03:16.212Z,22.80
2018-07-22T23:05:43.623Z,22.80
2018-07-22T23:08:10.944Z,22.70
2018-07-22T23:10:38.302Z,22.70
2018-07-22T23:13:05.639Z,22.70
2018-07-22T23:15:33.579Z,22.60
2018-07-22T23:18:00.947Z,22.50
2018-07-22T23:20:29.099Z,22.40
2018-07-22T23:22:56.443Z,22.40
2018-07-22T23:25:23.798Z,22.40
2018-07-22T23:27:51.148Z,22.30
2018-07-22T23:30:18.448Z,22.30
2018-07-22T23:32:45.775Z,22.30
2018-07-22T23:35:13.209Z,22.20
2018-07-22T23:37:40.523Z,22.20
2018-07-22T23:40:07.868Z,22.20
2018-07-22T23:42:35.185Z,22.10
2018-07-22T23:45:02.518Z,22.10
2018-07-22T23:49:56.999Z,22.10
2018-07-22T23:52:24.386Z,22.10
2018-07-22T23:54:51.727Z,22.10
2018-07-22T23:57:19.076Z,22.10
2018-07-22T23:59:46.431Z,22.00
